Time;durP1;ratioP1;P1;durP2;ratioP2;P2;SDS_P1;SDS_P2;PMS_P1;PMS_P2;Temp;Humidity;BMP_temperature;BMP_pressure;BME280_temperature;BME280_humidity;BME280_pressure;Samples;Min_cycle;Max_cycle;Signal;HPM_P1;HPM_P2
2023/03/16 00:01:16;;;;;;;4.27;2.50;;;8.40;99.90;;;;;;5031862;28;20207;-78
2023/03/16 00:03:42;;;;;;;3.50;2.50;;;8.40;99.90;;;;;;5032727;28;20652;-77
2023/03/16 00:06:08;;;;;;;5.67;3.47;;;8.40;99.90;;;;;;5032894;28;20174;-78
2023/03/16 00:08:34;;;;;;;3.87;2.50;;;8.50;99.90;;;;;;5031798;28;20653;-79
2023/03/16 00:11:02;;;;;;;7.57;3.10;;;8.60;99.90;;;;;;5040577;28;20187;-79
2023/03/16 00:13:29;;;;;;;6.57;3.20;;;8.60;99.90;;;;;;5051716;28;20660;-80
2023/03/16 00:15:58;;;;;;;6.30;2.43;;;8.60;99.90;;;;;;5051669;28;20635;-77
2023/03/16 00:18:27;;;;;;;6.33;2.60;;;8.70;99.90;;;;;;5052668;28;20174;-75
2023/03/16 00:20:58;;;;;;;5.27;2.40;;;8.70;99.90;;;;;;5051232;28;20207;-76
2023/03/16 00:23:28;;;;;;;6.57;2.80;;;8.70;99.90;;;;;;5052183;28;20251;-76
2023/03/16 00:25:58;;;;;;;7.00;2.63;;;8.70;99.90;;;;;;5050793;28;20184;-78
2023/03/16 00:28:25;;;;;;;9.33;2.80;;;8.60;99.90;;;;;;5052209;28;20178;-76
2023/03/16 00:30:51;;;;;;;4.03;2.50;;;8.60;99.90;;;;;;5051289;28;20187;-76
2023/03/16 00:33:17;;;;;;;6.27;2.90;;;8.50;99.90;;;;;;5049839;28;20182;-77
2023/03/16 00:36:00;;;;;;;6.40;2.83;;;8.60;99.90;;;;;;5051069;28;20168;-76
2023/03/16 00:38:27;;;;;;;5.97;2.77;;;8.70;99.90;;;;;;5052275;28;20496;-76
2023/03/16 00:40:53;;;;;;;5.07;2.20;;;8.70;99.90;;;;;;5051597;28;20204;-76
2023/03/16 00:43:19;;;;;;;5.13;2.60;;;8.60;99.90;;;;;;5052344;28;20174;-77
2023/03/16 00:45:44;;;;;;;6.23;2.47;;;8.50;99.90;;;;;;5051441;28;20165;-76
2023/03/16 00:48:10;;;;;;;6.03;2.47;;;8.50;99.90;;;;;;5050678;28;20161;-76
2023/03/16 00:50:37;;;;;;;4.30;2.20;;;8.50;99.90;;;;;;5051084;28;20659;-77
2023/03/16 00:53:02;;;;;;;5.53;2.30;;;8.70;99.90;;;;;;5052433;28;20566;-77
2023/03/16 00:55:28;;;;;;;7.50;2.33;;;8.50;99.90;;;;;;5050677;28;20176;-76
2023/03/16 00:57:54;;;;;;;6.63;2.30;;;8.50;99.90;;;;;;5050994;28;20172;-75
2023/03/16 01:00:21;;;;;;;5.67;2.70;;;8.40;99.90;;;;;;5051032;28;20204;-76
2023/03/16 01:02:47;;;;;;;6.10;2.50;;;8.50;99.90;;;;;;5050736;28;20176;-77
2023/03/16 01:05:13;;;;;;;4.07;2.07;;;8.60;99.90;;;;;;5050932;28;20298;-75
2023/03/16 01:07:40;;;;;;;4.03;2.30;;;8.60;99.90;;;;;;5052201;28;20210;-77
2023/03/16 01:10:08;;;;;;;6.27;2.43;;;8.50;99.90;;;;;;5051399;28;20180;-76
2023/03/16 01:12:34;;;;;;;7.07;2.30;;;8.60;99.90;;;;;;5050987;28;20592;-75
2023/03/16 01:15:00;;;;;;;4.13;2.47;;;8.70;99.90;;;;;;5050572;28;20168;-76
2023/03/16 01:17:26;;;;;;;4.67;2.40;;;8.70;99.90;;;;;;5050295;28;20621;-76
2023/03/16 01:19:52;;;;;;;5.37;2.50;;;8.80;99.90;;;;;;5051563;28;20195;-76
2023/03/16 01:22:18;;;;;;;4.60;2.00;;;8.60;99.90;;;;;;5051764;28;20632;-76
2023/03/16 01:24:45;;;;;;;7.10;2.60;;;8.50;99.90;;;;;;5046411;28;20291;-75
2023/03/16 01:27:11;;;;;;;3.00;1.90;;;8.50;99.90;;;;;;5048522;28;20169;-76
2023/03/16 01:29:38;;;;;;;7.50;2.50;;;8.50;99.90;;;;;;5055134;28;20557;-76
2023/03/16 01:32:05;;;;;;;5.20;2.30;;;8.40;99.90;;;;;;5053985;28;20251;-76
2023/03/16 01:34:32;;;;;;;8.13;2.40;;;8.40;99.90;;;;;;5053825;28;20171;-76
2023/03/16 01:36:59;;;;;;;6.60;2.03;;;8.50;99.90;;;;;;5053724;28;20163;-76
2023/03/16 01:39:24;;;;;;;4.93;2.30;;;8.50;99.90;;;;;;5053623;28;20199;-76
2023/03/16 01:41:52;;;;;;;4.67;2.07;;;8.50;99.90;;;;;;5053373;28;20255;-76
2023/03/16 01:44:23;;;;;;;6.63;2.60;;;8.50;99.90;;;;;;5053129;28;20581;-77
2023/03/16 01:46:49;;;;;;;8.70;2.73;;;8.50;99.90;;;;;;5053507;28;20266;-76
2023/03/16 01:49:27;;;;;;;5.73;2.43;;;8.50;99.90;;;;;;5054514;28;20165;-76
2023/03/16 01:52:02;;;;;;;6.63;2.23;;;8.50;99.90;;;;;;5053399;28;20262;-76
2023/03/16 01:54:39;;;;;;;5.43;2.30;;;8.40;99.90;;;;;;5054462;28;20175;-77
2023/03/16 01:57:35;;;;;;;5.87;2.40;;;8.50;99.90;;;;;;5053295;28;20628;-75
2023/03/16 02:00:17;;;;;;;5.37;2.40;;;8.40;99.90;;;;;;5053894;28;20215;-75
2023/03/16 02:02:45;;;;;;;7.03;2.40;;;8.50;99.90;;;;;;5053741;28;20199;-75
2023/03/16 02:05:15;;;;;;;4.57;2.33;;;8.40;99.90;;;;;;5054421;28;20229;-75
2023/03/16 02:07:47;;;;;;;6.07;2.30;;;8.20;99.90;;;;;;5053263;28;20164;-75
2023/03/16 02:10:15;;;;;;;6.80;2.43;;;8.20;99.90;;;;;;5054587;28;20152;-75
2023/03/16 02:12:42;;;;;;;5.20;2.50;;;8.30;99.90;;;;;;5054446;28;20604;-74
2023/03/16 02:15:09;;;;;;;3.43;2.10;;;8.40;99.90;;;;;;5054011;28;20164;-74
2023/03/16 02:17:35;;;;;;;4.37;1.97;;;8.40;99.90;;;;;;5052941;28;20187;-74
2023/03/16 02:20:10;;;;;;;4.50;2.33;;;8.40;99.90;;;;;;5052784;28;20231;-74
2023/03/16 02:22:41;;;;;;;2.20;1.50;;;8.20;99.90;;;;;;5068308;28;20175;-75
2023/03/16 02:25:08;;;;;;;4.27;1.93;;;8.10;99.90;;;;;;5052833;28;20163;-74
2023/03/16 02:27:45;;;;;;;5.03;2.10;;;8.20;99.90;;;;;;5052713;28;20179;-75
2023/03/16 02:30:15;;;;;;;2.33;1.70;;;8.30;99.90;;;;;;5052732;28;20171;-76
2023/03/16 02:32:42;;;;;;;3.63;1.97;;;8.30;99.90;;;;;;5051722;28;20176;-76
2023/03/16 02:35:09;;;;;;;5.27;2.50;;;8.40;99.90;;;;;;5052529;28;20203;-75
2023/03/16 02:37:34;;;;;;;4.10;2.10;;;8.30;99.90;;;;;;5053825;28;20176;-75
2023/03/16 02:40:14;;;;;;;8.70;2.17;;;8.30;99.90;;;;;;5053765;28;20184;-74
2023/03/16 02:42:39;;;;;;;5.63;1.90;;;8.30;99.90;;;;;;5053704;28;20170;-75
2023/03/16 02:45:06;;;;;;;3.80;1.70;;;8.40;99.90;;;;;;5053716;28;20649;-75
2023/03/16 02:47:35;;;;;;;5.23;1.80;;;8.50;99.90;;;;;;5045397;28;20279;-74
2023/03/16 02:50:05;;;;;;;4.93;1.67;;;8.50;99.90;;;;;;5033859;28;20680;-75
2023/03/16 02:52:35;;;;;;;5.30;1.80;;;8.40;99.90;;;;;;5033798;28;20161;-76
2023/03/16 02:55:01;;;;;;;4.63;2.10;;;8.50;99.90;;;;;;5032577;28;20561;-74
2023/03/16 02:57:27;;;;;;;8.60;2.10;;;8.50;99.90;;;;;;5033582;28;20214;-75
2023/03/16 02:59:53;;;;;;;6.03;1.63;;;8.60;99.90;;;;;;5032186;28;20196;-75
2023/03/16 03:02:18;;;;;;;5.80;2.13;;;8.50;99.90;;;;;;5038513;28;20168;-77
2023/03/16 03:04:45;;;;;;;4.80;1.83;;;8.50;99.90;;;;;;5052328;28;20219;-75
2023/03/16 03:07:13;;;;;;;4.80;2.07;;;8.50;99.90;;;;;;5052050;28;20164;-74
2023/03/16 03:09:42;;;;;;;2.53;1.50;;;8.40;99.90;;;;;;5051896;28;20172;-75
2023/03/16 03:12:12;;;;;;;5.83;2.30;;;8.30;99.90;;;;;;5051987;28;20179;-75
2023/03/16 03:14:38;;;;;;;5.00;1.60;;;8.40;99.90;;;;;;5052226;28;20178;-75
2023/03/16 03:17:09;;;;;;;8.97;1.93;;;8.50;99.90;;;;;;5050842;28;20201;-75
2023/03/16 03:19:35;;;;;;;4.33;1.70;;;8.50;99.90;;;;;;5052092;28;20548;-76
2023/03/16 03:22:05;;;;;;;5.77;2.00;;;8.60;99.90;;;;;;5051821;28;20182;-74
2023/03/16 03:24:31;;;;;;;6.77;1.80;;;8.60;99.90;;;;;;5052064;28;20168;-75
2023/03/16 03:26:59;;;;;;;7.80;2.00;;;8.60;99.90;;;;;;5051488;28;20168;-73
2023/03/16 03:29:33;;;;;;;4.33;1.87;;;8.50;99.90;;;;;;5052814;28;20164;-75
2023/03/16 03:32:03;;;;;;;2.13;1.80;;;8.60;99.90;;;;;;5052007;28;20229;-75
2023/03/16 03:34:30;;;;;;;6.87;1.97;;;8.40;99.90;;;;;;5052677;28;20563;-74
2023/03/16 03:36:56;;;;;;;5.47;1.80;;;8.50;99.90;;;;;;5051381;28;20218;-74
2023/03/16 03:39:22;;;;;;;5.63;1.90;;;8.40;99.90;;;;;;5052681;28;20581;-76
2023/03/16 03:41:48;;;;;;;3.87;1.67;;;8.50;99.90;;;;;;5051225;28;20167;-74
2023/03/16 03:44:14;;;;;;;4.50;1.60;;;8.60;99.90;;;;;;5051408;28;20156;-75
2023/03/16 03:46:40;;;;;;;2.87;1.40;;;8.40;99.90;;;;;;5050472;28;20205;-74
2023/03/16 03:49:06;;;;;;;2.97;1.57;;;8.40;99.90;;;;;;5052442;28;20168;-75
2023/03/16 03:51:32;;;;;;;4.03;1.53;;;8.50;99.90;;;;;;5050967;28;20175;-75
2023/03/16 03:53:58;;;;;;;5.37;1.90;;;8.60;99.90;;;;;;5051235;28;20535;-75
2023/03/16 03:56:24;;;;;;;5.53;1.83;;;8.50;99.90;;;;;;5050769;28;20157;-74
2023/03/16 03:58:50;;;;;;;4.57;1.70;;;8.60;99.90;;;;;;5051150;28;20539;-74
2023/03/16 04:01:16;;;;;;;3.60;1.70;;;8.60;99.90;;;;;;5050570;28;20205;-75
2023/03/16 04:03:41;;;;;;;4.40;1.97;;;8.60;99.90;;;;;;5051110;28;20167;-76
2023/03/16 04:06:08;;;;;;;5.73;1.67;;;8.60;99.90;;;;;;5051113;28;20257;-74
2023/03/16 04:08:34;;;;;;;7.03;1.50;;;8.60;99.90;;;;;;5051965;28;20570;-74
2023/03/16 04:11:00;;;;;;;8.13;2.63;;;8.80;99.90;;;;;;5052152;28;20157;-75
2023/03/16 04:13:26;;;;;;;4.57;1.30;;;8.80;99.90;;;;;;5051067;28;20168;-75
2023/03/16 04:16:01;;;;;;;3.10;1.70;;;8.70;99.90;;;;;;5050304;28;20590;-74
2023/03/16 04:18:27;;;;;;;5.17;1.60;;;8.50;99.90;;;;;;5050694;28;20212;-74
2023/03/16 04:20:53;;;;;;;4.03;1.50;;;8.60;99.90;;;;;;5051005;28;20590;-74
2023/03/16 04:23:19;;;;;;;3.50;1.50;;;8.50;99.90;;;;;;5050742;28;20160;-75
2023/03/16 04:25:45;;;;;;;5.77;1.60;;;8.50;99.90;;;;;;5051890;28;20656;-75
2023/03/16 04:28:11;;;;;;;4.47;1.40;;;8.50;99.90;;;;;;5050960;28;20617;-74
2023/03/16 04:30:36;;;;;;;2.53;1.40;;;8.60;99.90;;;;;;5049960;28;20192;-75
2023/03/16 04:33:03;;;;;;;7.27;1.60;;;8.60;99.90;;;;;;5050906;28;20209;-75
2023/03/16 04:35:29;;;;;;;7.33;1.60;;;8.60;99.90;;;;;;5050914;28;20188;-75
2023/03/16 04:37:54;;;;;;;4.17;1.67;;;8.70;99.90;;;;;;5050460;28;20636;-74
2023/03/16 04:40:20;;;;;;;3.27;1.43;;;8.60;99.90;;;;;;5050781;28;20248;-75
2023/03/16 04:42:46;;;;;;;2.90;1.37;;;8.50;99.90;;;;;;5052172;28;20164;-75
2023/03/16 04:45:13;;;;;;;4.97;1.60;;;8.50;99.90;;;;;;5049967;28;20544;-75
2023/03/16 04:47:39;;;;;;;5.50;1.97;;;8.60;99.90;;;;;;5052009;28;20160;-74
2023/03/16 04:50:05;;;;;;;4.00;1.60;;;8.50;99.90;;;;;;5052166;28;20191;-74
2023/03/16 04:52:31;;;;;;;3.47;1.67;;;8.50;99.90;;;;;;5051831;28;20183;-76
2023/03/16 04:54:57;;;;;;;4.13;1.60;;;8.60;99.90;;;;;;5050656;28;20171;-75
2023/03/16 04:57:23;;;;;;;5.60;1.87;;;8.40;99.90;;;;;;5050670;28;20168;-75
2023/03/16 04:59:49;;;;;;;2.50;1.30;;;8.50;99.90;;;;;;5050418;28;20687;-77
2023/03/16 05:02:16;;;;;;;7.50;1.40;;;8.40;99.90;;;;;;5052510;28;20168;-75
2023/03/16 05:04:42;;;;;;;5.00;1.83;;;8.40;99.90;;;;;;5054442;28;20186;-75
2023/03/16 05:07:07;;;;;;;2.87;1.50;;;8.40;99.90;;;;;;5054324;28;20172;-74
2023/03/16 05:09:33;;;;;;;7.63;1.63;;;8.50;99.90;;;;;;5054132;28;20523;-75
2023/03/16 05:11:59;;;;;;;4.10;1.70;;;8.50;99.90;;;;;;5054738;28;20255;-74
2023/03/16 05:14:25;;;;;;;6.83;1.40;;;8.40;99.90;;;;;;5054492;28;20163;-75
2023/03/16 05:16:51;;;;;;;2.60;1.37;;;8.30;99.90;;;;;;5055590;28;20220;-74
2023/03/16 05:19:17;;;;;;;5.00;1.53;;;8.30;99.90;;;;;;5053986;28;20561;-77
2023/03/16 05:21:44;;;;;;;4.60;1.70;;;8.30;99.90;;;;;;5054211;28;20294;-76
2023/03/16 05:24:11;;;;;;;5.83;1.67;;;8.20;99.90;;;;;;5053349;28;20164;-75
2023/03/16 05:26:36;;;;;;;3.20;1.60;;;8.10;99.90;;;;;;5055600;28;20175;-75
2023/03/16 05:29:03;;;;;;;4.73;1.50;;;8.30;99.90;;;;;;5055367;28;20160;-77
2023/03/16 05:31:31;;;;;;;6.27;1.63;;;8.40;99.90;;;;;;5055191;28;20653;-75
2023/03/16 05:33:57;;;;;;;4.70;1.50;;;8.40;99.90;;;;;;5054181;28;20156;-76
2023/03/16 05:36:24;;;;;;;5.27;2.03;;;8.30;99.90;;;;;;5053835;28;20176;-76
2023/03/16 05:38:51;;;;;;;4.77;1.50;;;8.30;99.90;;;;;;5054078;28;20179;-76
2023/03/16 05:41:17;;;;;;;4.87;1.73;;;8.20;99.90;;;;;;5054295;28;20195;-76
2023/03/16 05:43:43;;;;;;;3.17;1.57;;;8.30;99.90;;;;;;5055124;28;20168;-77
2023/03/16 05:46:09;;;;;;;3.87;1.50;;;8.30;99.90;;;;;;5050104;28;20268;-76
2023/03/16 05:48:36;;;;;;;3.03;1.53;;;8.30;99.90;;;;;;5035203;28;20180;-74
2023/03/16 05:51:04;;;;;;;4.00;1.70;;;8.40;99.90;;;;;;5034855;28;20222;-77
2023/03/16 05:53:31;;;;;;;4.87;1.57;;;8.30;99.90;;;;;;5052109;28;20241;-75
2023/03/16 05:55:56;;;;;;;4.83;1.80;;;8.20;99.90;;;;;;5053799;28;20269;-75
2023/03/16 05:58:22;;;;;;;2.57;1.20;;;8.20;99.90;;;;;;5053741;28;20251;-75
2023/03/16 06:00:49;;;;;;;7.67;1.70;;;8.30;99.90;;;;;;5054642;28;20207;-75
2023/03/16 06:03:16;;;;;;;4.73;2.07;;;8.20;99.90;;;;;;5055644;28;20503;-75
2023/03/16 06:05:42;;;;;;;3.30;1.30;;;8.20;99.90;;;;;;5054245;28;20248;-75
2023/03/16 06:08:08;;;;;;;6.00;1.50;;;8.20;99.90;;;;;;5056036;28;20210;-75
2023/03/16 06:10:37;;;;;;;4.13;1.37;;;8.20;99.90;;;;;;5052950;28;20210;-75
2023/03/16 06:13:02;;;;;;;5.37;1.30;;;8.20;99.90;;;;;;5053222;28;20160;-76
2023/03/16 06:15:29;;;;;;;8.40;1.77;;;8.10;99.90;;;;;;5053266;28;20686;-76
2023/03/16 06:17:55;;;;;;;3.20;1.40;;;8.20;99.90;;;;;;5052524;28;20172;-75
2023/03/16 06:20:23;;;;;;;4.30;1.40;;;8.10;99.90;;;;;;5052943;28;20203;-76
2023/03/16 06:22:52;;;;;;;2.97;1.60;;;8.30;99.90;;;;;;5053471;28;20187;-76
2023/03/16 06:25:23;;;;;;;6.90;1.60;;;8.10;99.90;;;;;;5055099;28;20625;-74
2023/03/16 06:27:49;;;;;;;6.03;1.43;;;8.10;99.90;;;;;;5053733;28;20172;-77
2023/03/16 06:30:22;;;;;;;2.63;1.40;;;8.20;99.90;;;;;;5054859;28;20536;-75
2023/03/16 06:32:50;;;;;;;5.63;1.47;;;8.30;99.90;;;;;;5038983;28;20245;-76
2023/03/16 06:35:17;;;;;;;3.97;1.53;;;8.20;99.90;;;;;;5034383;28;20161;-75
2023/03/16 06:37:45;;;;;;;4.43;1.20;;;8.20;99.90;;;;;;5040073;28;20168;-75
2023/03/16 06:40:12;;;;;;;4.57;1.63;;;8.20;99.90;;;;;;5050140;28;20238;-75
2023/03/16 06:42:39;;;;;;;5.23;1.60;;;8.30;99.90;;;;;;5034814;28;20169;-75
2023/03/16 06:45:08;;;;;;;5.00;1.50;;;8.40;99.90;;;;;;5038370;28;20164;-75
2023/03/16 06:47:35;;;;;;;4.13;1.60;;;8.50;99.90;;;;;;5053698;28;20182;-75
2023/03/16 06:50:05;;;;;;;7.13;2.00;;;8.50;99.90;;;;;;5053241;28;20251;-77
2023/03/16 06:52:31;;;;;;;5.03;1.50;;;8.40;99.90;;;;;;5053480;28;20681;-74
2023/03/16 06:54:59;;;;;;;6.67;1.70;;;8.40;99.90;;;;;;5048514;28;20190;-74
2023/03/16 06:57:25;;;;;;;8.33;1.47;;;8.40;99.90;;;;;;5042835;28;20176;-75
2023/03/16 06:59:59;;;;;;;8.87;2.07;;;8.60;99.90;;;;;;5050935;28;20208;-73
2023/03/16 07:02:25;;;;;;;2.80;1.27;;;8.60;99.90;;;;;;5052270;28;20823;-74
2023/03/16 07:04:50;;;;;;;2.77;1.50;;;8.60;99.90;;;;;;5052162;28;20183;-73
2023/03/16 07:07:18;;;;;;;1.87;1.10;;;8.60;99.90;;;;;;5051729;28;20198;-74
2023/03/16 07:09:45;;;;;;;9.07;1.57;;;8.60;99.90;;;;;;5052211;28;20176;-74
2023/03/16 07:12:12;;;;;;;4.47;1.60;;;8.70;99.90;;;;;;5052616;28;20172;-74
2023/03/16 07:14:41;;;;;;;5.27;1.23;;;8.80;99.90;;;;;;5052306;28;20625;-75
2023/03/16 07:17:14;;;;;;;4.83;1.40;;;8.70;99.90;;;;;;5050726;28;20167;-74
2023/03/16 07:19:39;;;;;;;6.20;1.57;;;8.70;99.90;;;;;;5050665;28;20207;-74
2023/03/16 07:22:09;;;;;;;3.73;1.10;;;8.80;99.90;;;;;;5052282;28;20167;-76
2023/03/16 07:24:35;;;;;;;5.90;1.57;;;8.70;99.90;;;;;;5051605;28;20164;-75
2023/03/16 07:27:06;;;;;;;3.77;1.67;;;8.60;99.90;;;;;;5052212;28;20167;-76
2023/03/16 07:29:39;;;;;;;3.40;1.27;;;8.80;99.90;;;;;;5052121;28;20995;-75
2023/03/16 07:32:05;;;;;;;4.40;1.67;;;8.60;99.90;;;;;;5050663;28;20229;-74
2023/03/16 07:34:35;;;;;;;11.77;2.20;;;8.70;99.90;;;;;;5049591;28;20175;-76
2023/03/16 07:37:04;;;;;;;10.53;1.50;;;8.70;99.90;;;;;;5048216;28;20187;-74
2023/03/16 07:39:35;;;;;;;2.50;1.40;;;8.60;99.90;;;;;;5051778;28;20569;-74
2023/03/16 07:42:08;;;;;;;5.03;1.53;;;8.80;99.90;;;;;;5051819;28;20164;-75
2023/03/16 07:44:55;;;;;;;3.53;1.60;;;9.00;99.90;;;;;;5051915;28;20243;-75
2023/03/16 07:47:24;;;;;;;2.70;1.40;;;9.00;99.90;;;;;;5051812;28;20192;-76
2023/03/16 07:49:53;;;;;;;4.10;1.33;;;9.00;99.90;;;;;;5050697;28;20663;-75
2023/03/16 07:52:22;;;;;;;4.30;1.20;;;9.20;99.90;;;;;;5051927;28;20814;-76
2023/03/16 07:54:51;;;;;;;2.60;1.27;;;9.40;99.90;;;;;;5050361;28;20179;-75
2023/03/16 07:57:23;;;;;;;9.77;1.77;;;9.70;99.90;;;;;;5051472;28;20540;-75
2023/03/16 07:59:48;;;;;;;3.67;1.37;;;9.60;99.90;;;;;;5051629;28;20264;-77
2023/03/16 08:02:18;;;;;;;4.73;1.60;;;9.70;99.90;;;;;;5050512;28;20165;-75
2023/03/16 08:04:46;;;;;;;3.70;1.30;;;9.90;99.90;;;;;;5051676;28;20160;-75
2023/03/16 08:07:19;;;;;;;5.90;1.20;;;9.90;99.90;;;;;;5051402;28;20544;-75
2023/03/16 08:09:48;;;;;;;4.60;1.30;;;9.90;99.90;;;;;;5050332;28;20193;-76
2023/03/16 08:12:14;;;;;;;3.40;1.90;;;9.90;99.90;;;;;;5051684;28;20238;-75
2023/03/16 08:14:39;;;;;;;4.13;1.40;;;9.90;99.90;;;;;;5050128;28;20191;-75
2023/03/16 08:17:08;;;;;;;3.83;1.40;;;9.80;99.90;;;;;;5051184;28;20183;-75
2023/03/16 08:19:34;;;;;;;4.27;1.30;;;9.70;99.90;;;;;;5051366;28;20224;-75
2023/03/16 08:22:03;;;;;;;3.20;1.30;;;9.70;99.90;;;;;;5050317;28;20839;-76
2023/03/16 08:24:42;;;;;;;1.30;1.00;;;9.70;99.90;;;;;;5051702;28;20621;-76
2023/03/16 08:27:21;;;;;;;4.33;2.00;;;9.60;99.90;;;;;;5051077;28;20168;-75
2023/03/16 08:29:54;;;;;;;4.13;1.30;;;9.50;99.90;;;;;;5051171;28;20250;-76
2023/03/16 08:32:23;;;;;;;5.03;1.30;;;9.70;99.90;;;;;;5051158;28;20179;-76
2023/03/16 08:34:51;;;;;;;4.70;1.33;;;9.90;99.90;;;;;;5051210;28;20164;-76
2023/03/16 08:37:28;;;;;;;5.03;1.20;;;10.20;99.90;;;;;;5054745;28;20160;-76
2023/03/16 08:39:55;;;;;;;2.37;1.23;;;10.40;99.90;;;;;;5055435;28;20215;-75
2023/03/16 08:42:24;;;;;;;3.50;1.13;;;10.60;99.90;;;;;;5054894;28;20288;-77
2023/03/16 08:45:08;;;;;;;2.97;1.10;;;10.90;99.90;;;;;;5054905;28;20179;-76
2023/03/16 08:47:40;;;;;;;5.23;1.10;;;11.30;99.90;;;;;;5055735;28;20241;-75
2023/03/16 08:50:23;;;;;;;8.07;1.43;;;11.10;99.90;;;;;;5054913;28;20164;-76
2023/03/16 08:52:50;;;;;;;1.90;1.10;;;10.90;99.90;;;;;;5055353;28;20205;-76
2023/03/16 08:55:19;;;;;;;2.93;1.03;;;10.90;99.90;;;;;;5053504;28;20651;-77
2023/03/16 08:57:47;;;;;;;2.97;1.10;;;11.00;99.90;;;;;;5054007;28;20177;-76
2023/03/16 09:00:21;;;;;;;5.13;1.40;;;11.00;99.90;;;;;;5053873;28;20715;-76
2023/03/16 09:02:50;;;;;;;2.90;0.83;;;11.00;99.90;;;;;;5053837;28;20217;-76
2023/03/16 09:05:28;;;;;;;2.40;1.13;;;11.00;99.90;;;;;;5053774;28;20180;-75
2023/03/16 09:07:54;;;;;;;3.27;1.10;;;11.40;99.90;;;;;;5052986;28;20311;-76
2023/03/16 09:10:21;;;;;;;4.13;1.20;;;11.50;99.80;;;;;;5056483;28;20185;-76
2023/03/16 09:12:49;;;;;;;2.43;1.30;;;11.50;99.40;;;;;;5056567;28;20186;-75
2023/03/16 09:15:15;;;;;;;4.47;1.67;;;11.40;99.50;;;;;;5052417;28;20290;-77
2023/03/16 09:17:43;;;;;;;4.50;1.10;;;11.20;99.70;;;;;;5054584;28;20269;-76
2023/03/16 09:20:11;;;;;;;4.63;1.43;;;11.20;99.80;;;;;;5056310;28;20207;-75
2023/03/16 09:22:39;;;;;;;2.40;1.30;;;11.40;99.60;;;;;;5056469;28;20199;-75
2023/03/16 09:25:06;;;;;;;3.27;1.47;;;11.60;99.30;;;;;;5054671;28;20488;-75
2023/03/16 09:27:32;;;;;;;2.97;1.07;;;11.70;99.40;;;;;;5054663;28;20566;-76
2023/03/16 09:29:59;;;;;;;4.03;1.20;;;11.60;98.90;;;;;;5055264;28;20175;-76
2023/03/16 09:32:27;;;;;;;3.93;1.33;;;11.50;98.80;;;;;;5054193;28;20181;-75
2023/03/16 09:34:53;;;;;;;4.40;1.40;;;11.50;99.20;;;;;;5053935;28;20223;-76
2023/03/16 09:37:19;;;;;;;4.37;1.20;;;11.70;99.30;;;;;;5055433;28;20188;-77
2023/03/16 09:39:47;;;;;;;2.13;0.90;;;11.80;98.60;;;;;;5053846;28;20194;-75
2023/03/16 09:42:35;;;;;;;2.37;1.00;;;11.80;98.80;;;;;;5054063;28;20158;-76
2023/03/16 09:45:30;;;;;;;5.63;1.30;;;11.90;98.30;;;;;;5047166;28;20198;-75
2023/03/16 09:48:00;;;;;;;3.90;0.90;;;12.00;98.00;;;;;;5053214;28;20166;-75
2023/03/16 09:50:30;;;;;;;2.87;1.20;;;11.80;97.80;;;;;;5055203;28;20159;-77
2023/03/16 09:53:12;;;;;;;5.37;1.27;;;12.00;98.10;;;;;;5055067;28;20304;-76
2023/03/16 09:55:41;;;;;;;4.20;1.00;;;12.20;97.70;;;;;;5054775;28;20664;-75
2023/03/16 09:58:17;;;;;;;2.60;0.93;;;12.30;97.60;;;;;;5054714;28;20187;-75
2023/03/16 10:01:09;;;;;;;1.87;0.90;;;12.10;97.40;;;;;;5053450;28;20549;-75
2023/03/16 10:04:20;;;;;;;3.33;0.90;;;12.00;97.20;;;;;;5048294;28;20177;-75
2023/03/16 10:07:10;;;;;;;4.80;0.90;;;12.00;97.70;;;;;;5037968;28;20213;-75
2023/03/16 10:09:52;;;;;;;2.53;0.90;;;12.00;97.10;;;;;;5044786;28;20185;-75
2023/03/16 10:12:19;;;;;;;1.53;1.07;;;12.00;96.90;;;;;;5053301;28;20205;-76
2023/03/16 10:15:07;;;;;;;3.43;1.10;;;12.10;96.70;;;;;;5054779;28;20167;-76
2023/03/16 10:17:44;;;;;;;3.47;0.80;;;12.00;97.10;;;;;;5054803;28;20210;-75
2023/03/16 10:20:21;;;;;;;4.90;1.10;;;12.00;96.90;;;;;;5054332;28;20245;-75
2023/03/16 10:22:51;;;;;;;3.00;1.30;;;12.00;96.60;;;;;;5054574;28;20678;-75
2023/03/16 10:25:43;;;;;;;1.27;0.70;;;12.00;96.80;;;;;;5054197;28;20165;-76
2023/03/16 10:28:23;;;;;;;2.40;0.77;;;12.20;96.50;;;;;;5053970;28;20179;-75
2023/03/16 10:30:51;;;;;;;2.60;1.00;;;12.50;96.20;;;;;;5054354;28;20168;-76
2023/03/16 10:33:30;;;;;;;3.83;0.93;;;12.60;95.80;;;;;;5054448;28;20204;-75
2023/03/16 10:36:24;;;;;;;1.70;0.90;;;12.70;95.50;;;;;;5054100;28;20244;-76
2023/03/16 10:38:54;;;;;;;2.87;1.17;;;12.80;95.10;;;;;;5052687;28;20182;-76
2023/03/16 10:41:20;;;;;;;2.83;0.90;;;13.00;95.60;;;;;;5053875;28;20203;-76
2023/03/16 10:43:53;;;;;;;2.23;1.10;;;13.30;94.00;;;;;;5054050;28;20228;-76
2023/03/16 10:46:19;;;;;;;4.13;0.70;;;13.50;93.90;;;;;;5053937;28;20161;-75
2023/03/16 10:48:58;;;;;;;2.33;0.80;;;13.40;94.00;;;;;;5054166;28;20187;-76
2023/03/16 10:51:33;;;;;;;2.80;1.00;;;13.70;93.70;;;;;;5053741;28;20170;-76
2023/03/16 10:54:39;;;;;;;2.13;0.77;;;13.70;93.40;;;;;;5052716;28;20179;-75
2023/03/16 10:57:28;;;;;;;1.33;0.63;;;14.00;93.30;;;;;;5014730;28;20187;-77
2023/03/16 10:59:58;;;;;;;3.03;0.73;;;14.20;92.40;;;;;;5050875;28;20564;-75
2023/03/16 11:02:30;;;;;;;3.97;0.60;;;14.20;92.80;;;;;;5053654;28;20171;-75
2023/03/16 11:04:56;;;;;;;2.33;0.93;;;14.00;91.60;;;;;;5053526;28;20164;-76
2023/03/16 11:07:23;;;;;;;2.57;1.00;;;13.80;92.30;;;;;;5053463;28;20610;-76
2023/03/16 11:09:51;;;;;;;1.80;0.70;;;14.00;92.20;;;;;;5052169;28;20608;-75
2023/03/16 11:12:30;;;;;;;3.03;0.83;;;14.00;92.60;;;;;;5052279;28;20207;-76
2023/03/16 11:15:23;;;;;;;2.50;0.70;;;13.90;92.20;;;;;;5053362;28;20173;-76
2023/03/16 11:17:52;;;;;;;1.80;0.70;;;13.90;92.30;;;;;;5050241;28;20195;-76
2023/03/16 11:20:30;;;;;;;2.00;0.97;;;14.00;91.50;;;;;;5052152;28;20214;-76
2023/03/16 11:22:58;;;;;;;2.30;0.70;;;14.10;91.10;;;;;;5053295;28;20170;-77
2023/03/16 11:25:32;;;;;;;2.30;0.60;;;14.00;91.10;;;;;;5051967;28;20587;-76
2023/03/16 11:28:31;;;;;;;3.43;0.70;;;14.30;91.00;;;;;;5053320;28;20167;-76
2023/03/16 11:31:15;;;;;;;1.60;0.70;;;14.80;90.10;;;;;;5053202;28;20647;-76
2023/03/16 11:33:41;;;;;;;4.20;1.07;;;15.10;89.30;;;;;;5053317;28;20184;-77
2023/03/16 11:36:26;;;;;;;1.77;0.70;;;14.90;88.50;;;;;;5052991;28;20650;-76
2023/03/16 11:39:23;;;;;;;1.87;0.70;;;14.90;88.60;;;;;;5053080;28;20653;-75
2023/03/16 11:41:52;;;;;;;1.80;0.67;;;14.40;89.70;;;;;;5053159;28;20569;-75
2023/03/16 11:44:45;;;;;;;2.63;0.77;;;14.00;90.40;;;;;;5051605;28;20175;-76
2023/03/16 11:47:32;;;;;;;1.00;0.50;;;14.10;90.30;;;;;;5052803;28;20712;-75
2023/03/16 11:50:10;;;;;;;1.60;0.60;;;14.40;90.30;;;;;;5051784;28;20192;-75
2023/03/16 11:52:48;;;;;;;2.00;0.80;;;14.40;89.80;;;;;;5052824;28;20168;-76
2023/03/16 11:55:48;;;;;;;3.57;0.90;;;14.50;90.00;;;;;;5051380;28;20160;-76
2023/03/16 11:58:57;;;;;;;2.23;0.60;;;14.70;90.30;;;;;;5052804;28;20172;-75
2023/03/16 12:01:37;;;;;;;1.57;0.50;;;15.20;90.30;;;;;;5042401;28;20222;-76
2023/03/16 12:04:22;;;;;;;1.20;0.60;;;15.10;88.70;;;;;;5052896;28;20160;-76
2023/03/16 12:07:00;;;;;;;3.37;0.70;;;15.50;88.80;;;;;;5052579;28;20211;-76
2023/03/16 12:10:07;;;;;;;3.03;0.80;;;15.70;88.00;;;;;;5052803;28;20179;-76
2023/03/16 12:12:46;;;;;;;1.90;0.73;;;16.10;87.90;;;;;;5052401;28;20170;-76
2023/03/16 12:15:20;;;;;;;3.83;1.10;;;16.40;87.10;;;;;;5052612;28;20157;-75
2023/03/16 12:17:47;;;;;;;1.20;0.60;;;16.60;87.00;;;;;;5051230;28;20176;-76
2023/03/16 12:20:20;;;;;;;2.23;1.10;;;16.70;84.90;;;;;;5052350;28;20316;-76
2023/03/16 12:23:01;;;;;;;3.50;0.80;;;16.80;83.40;;;;;;5052432;28;20194;-77
2023/03/16 12:25:33;;;;;;;2.60;0.83;;;17.00;83.30;;;;;;5052480;28;20174;-76
2023/03/16 12:28:01;;;;;;;2.73;0.80;;;16.90;83.00;;;;;;5052235;28;20167;-75
2023/03/16 12:30:36;;;;;;;1.63;0.70;;;17.30;82.60;;;;;;5052568;28;20166;-75
2023/03/16 12:33:15;;;;;;;3.43;0.77;;;18.00;81.40;;;;;;5052063;28;20152;-75
2023/03/16 12:36:11;;;;;;;2.30;0.70;;;18.70;79.70;;;;;;5052302;28;20174;-75
2023/03/16 12:39:04;;;;;;;1.57;0.80;;;17.70;78.40;;;;;;5051999;28;20293;-76
2023/03/16 12:41:41;;;;;;;1.37;0.60;;;17.50;79.40;;;;;;5052268;28;20203;-75
2023/03/16 12:44:30;;;;;;;2.10;0.50;;;17.60;79.20;;;;;;5052430;28;20226;-77
2023/03/16 12:47:35;;;;;;;5.10;1.00;;;17.60;79.20;;;;;;5050880;28;20174;-75
2023/03/16 12:50:07;;;;;;;2.23;0.50;;;17.90;78.40;;;;;;5052123;28;20589;-74
2023/03/16 12:52:45;;;;;;;2.83;0.83;;;18.00;77.80;;;;;;5052061;28;20206;-75
2023/03/16 12:55:19;;;;;;;1.13;0.70;;;17.90;77.80;;;;;;5050962;28;20524;-76
2023/03/16 12:57:50;;;;;;;3.77;0.70;;;18.40;76.30;;;;;;5050820;28;20244;-76
2023/03/16 13:00:18;;;;;;;3.77;0.60;;;18.50;75.80;;;;;;5052032;28;20226;-76
2023/03/16 13:02:54;;;;;;;2.07;0.80;;;18.50;75.70;;;;;;5052101;28;20160;-75
2023/03/16 13:05:31;;;;;;;3.03;0.97;;;18.30;75.80;;;;;;5051933;28;20533;-75
2023/03/16 13:08:10;;;;;;;4.17;0.80;;;18.80;75.30;;;;;;5051703;28;20529;-76
2023/03/16 13:10:36;;;;;;;3.10;0.80;;;19.60;74.90;;;;;;5050718;28;20668;-76
2023/03/16 13:13:14;;;;;;;4.67;0.80;;;19.70;73.10;;;;;;5051694;28;20179;-75